sensor_id;sensor_type;location;lat;lon;timestamp;pressure;altitude;pressure_sealevel;temperature;humidity
3598;BME280;1813;52.016;8.714;2023-03-03T00:00:16;-16261.94;;;-139.71;78.78
3598;BME280;1813;52.016;8.714;2023-03-03T00:02:50;-16261.94;;;-139.71;78.57
3598;BME280;1813;52.016;8.714;2023-03-03T00:05:24;-16261.94;;;-139.71;78.42
3598;BME280;1813;52.016;8.714;2023-03-03T00:08:02;-16261.94;;;-139.71;78.39
3598;BME280;1813;52.016;8.714;2023-03-03T00:10:36;-16261.94;;;-139.71;78.31
3598;BME280;1813;52.016;8.714;2023-03-03T00:13:15;-16261.94;;;-139.71;78.27
3598;BME280;1813;52.016;8.714;2023-03-03T00:15:50;-16261.94;;;-139.71;78.08
3598;BME280;1813;52.016;8.714;2023-03-03T00:18:30;-16261.94;;;-139.71;77.85
3598;BME280;1813;52.016;8.714;2023-03-03T00:21:19;-16261.94;;;-139.71;77.81
3598;BME280;1813;52.016;8.714;2023-03-03T00:24:01;-16261.94;;;-139.71;77.76
3598;BME280;1813;52.016;8.714;2023-03-03T00:26:43;-16261.94;;;-139.71;77.87
3598;BME280;1813;52.016;8.714;2023-03-03T00:29:29;-16261.94;;;-139.71;77.82
3598;BME280;1813;52.016;8.714;2023-03-03T00:32:19;-16261.94;;;-139.71;77.71
3598;BME280;1813;52.016;8.714;2023-03-03T00:34:55;-16261.94;;;-139.71;77.61
3598;BME280;1813;52.016;8.714;2023-03-03T00:37:34;-16261.94;;;-139.71;77.75
3598;BME280;1813;52.016;8.714;2023-03-03T00:40:19;-16261.94;;;-139.71;77.81
3598;BME280;1813;52.016;8.714;2023-03-03T00:42:55;-16261.94;;;-139.71;77.71
3598;BME280;1813;52.016;8.714;2023-03-03T00:45:34;-16261.94;;;-139.71;77.46
3598;BME280;1813;52.016;8.714;2023-03-03T00:48:23;-16261.94;;;-139.71;77.27
3598;BME280;1813;52.016;8.714;2023-03-03T00:50:58;-16261.94;;;-139.71;77.28
3598;BME280;1813;52.016;8.714;2023-03-03T00:53:32;-16261.94;;;-139.71;76.85
3598;BME280;1813;52.016;8.714;2023-03-03T00:56:09;-16261.94;;;-139.71;76.60
3598;BME280;1813;52.016;8.714;2023-03-03T00:58:45;-16261.94;;;-139.71;76.40
3598;BME280;1813;52.016;8.714;2023-03-03T01:01:22;-16261.94;;;-139.71;76.24
3598;BME280;1813;52.016;8.714;2023-03-03T01:03:58;-16261.94;;;-139.71;76.03
3598;BME280;1813;52.016;8.714;2023-03-03T01:06:31;-16261.94;;;-139.71;76.06
3598;BME280;1813;52.016;8.714;2023-03-03T01:09:05;-16261.94;;;-139.71;76.17
3598;BME280;1813;52.016;8.714;2023-03-03T01:11:42;-16261.94;;;-139.71;76.36
3598;BME280;1813;52.016;8.714;2023-03-03T01:14:16;-16261.94;;;-139.71;76.40
3598;BME280;1813;52.016;8.714;2023-03-03T01:16:50;-16261.94;;;-139.71;76.52
3598;BME280;1813;52.016;8.714;2023-03-03T01:19:25;-16261.94;;;-139.71;76.79
3598;BME280;1813;52.016;8.714;2023-03-03T01:22:02;-16261.94;;;-139.71;76.86
3598;BME280;1813;52.016;8.714;2023-03-03T01:24:36;-16261.94;;;-139.71;76.94
3598;BME280;1813;52.016;8.714;2023-03-03T01:27:12;-16261.94;;;-139.71;76.83
3598;BME280;1813;52.016;8.714;2023-03-03T01:29:46;-16261.94;;;-139.71;76.99
3598;BME280;1813;52.016;8.714;2023-03-03T01:32:20;-16261.94;;;-139.71;76.95
3598;BME280;1813;52.016;8.714;2023-03-03T01:34:55;-16261.94;;;-139.71;76.80
3598;BME280;1813;52.016;8.714;2023-03-03T01:37:29;-16261.94;;;-139.71;76.80
3598;BME280;1813;52.016;8.714;2023-03-03T01:40:04;-16261.94;;;-139.71;76.88
3598;BME280;1813;52.016;8.714;2023-03-03T01:42:41;-16261.94;;;-139.71;76.79
3598;BME280;1813;52.016;8.714;2023-03-03T01:45:18;-16261.94;;;-139.71;76.68
3598;BME280;1813;52.016;8.714;2023-03-03T01:47:57;-16261.94;;;-139.71;76.61
3598;BME280;1813;52.016;8.714;2023-03-03T01:50:38;-16261.94;;;-139.71;76.58
3598;BME280;1813;52.016;8.714;2023-03-03T01:53:18;-16261.94;;;-139.71;76.51
3598;BME280;1813;52.016;8.714;2023-03-03T01:55:52;-16261.94;;;-139.71;76.52
3598;BME280;1813;52.016;8.714;2023-03-03T01:58:32;-16261.94;;;-139.71;76.58
3598;BME280;1813;52.016;8.714;2023-03-03T02:01:11;-16261.94;;;-139.71;76.77
3598;BME280;1813;52.016;8.714;2023-03-03T02:03:46;-16261.94;;;-139.71;76.83
3598;BME280;1813;52.016;8.714;2023-03-03T02:06:24;-16261.94;;;-139.71;77.24
3598;BME280;1813;52.016;8.714;2023-03-03T02:09:04;-16261.94;;;-139.71;77.35
3598;BME280;1813;52.016;8.714;2023-03-03T02:11:41;-16261.94;;;-139.71;77.58
3598;BME280;1813;52.016;8.714;2023-03-03T02:14:19;-16261.94;;;-139.71;77.72
3598;BME280;1813;52.016;8.714;2023-03-03T02:16:53;-16261.94;;;-139.71;77.77
3598;BME280;1813;52.016;8.714;2023-03-03T02:19:32;-16261.94;;;-139.71;77.85
3598;BME280;1813;52.016;8.714;2023-03-03T02:22:08;-16261.94;;;-139.71;78.06
3598;BME280;1813;52.016;8.714;2023-03-03T02:24:48;-16261.94;;;-139.71;78.13
3598;BME280;1813;52.016;8.714;2023-03-03T02:27:30;-16261.94;;;-139.71;78.24
3598;BME280;1813;52.016;8.714;2023-03-03T02:30:12;-16261.94;;;-139.71;78.43
3598;BME280;1813;52.016;8.714;2023-03-03T02:32:47;-16261.94;;;-139.71;78.55
3598;BME280;1813;52.016;8.714;2023-03-03T02:35:29;-16261.94;;;-139.71;78.64
3598;BME280;1813;52.016;8.714;2023-03-03T02:38:14;-16261.94;;;-139.71;78.58
3598;BME280;1813;52.016;8.714;2023-03-03T02:40:58;-16261.94;;;-139.71;78.41
3598;BME280;1813;52.016;8.714;2023-03-03T02:43:40;-16261.94;;;-139.71;78.42
3598;BME280;1813;52.016;8.714;2023-03-03T02:46:18;-16261.94;;;-139.71;78.46
3598;BME280;1813;52.016;8.714;2023-03-03T02:48:52;-16261.94;;;-139.71;78.51
3598;BME280;1813;52.016;8.714;2023-03-03T02:51:26;-16261.94;;;-139.71;78.63
3598;BME280;1813;52.016;8.714;2023-03-03T02:54:01;-16261.94;;;-139.71;78.75
3598;BME280;1813;52.016;8.714;2023-03-03T02:56:37;-16261.94;;;-139.71;78.83
3598;BME280;1813;52.016;8.714;2023-03-03T02:59:14;-16261.94;;;-139.71;78.78
3598;BME280;1813;52.016;8.714;2023-03-03T03:01:52;-16261.94;;;-139.71;79.00
3598;BME280;1813;52.016;8.714;2023-03-03T03:04:26;-16261.94;;;-139.71;79.11
3598;BME280;1813;52.016;8.714;2023-03-03T03:07:00;-16261.94;;;-139.71;79.08
3598;BME280;1813;52.016;8.714;2023-03-03T03:09:37;-16261.94;;;-139.71;78.88
3598;BME280;1813;52.016;8.714;2023-03-03T03:12:11;-16261.94;;;-139.71;78.96
3598;BME280;1813;52.016;8.714;2023-03-03T03:14:51;-16261.94;;;-139.71;78.76
3598;BME280;1813;52.016;8.714;2023-03-03T03:17:25;-16261.94;;;-139.71;78.84
3598;BME280;1813;52.016;8.714;2023-03-03T03:19:59;-16261.94;;;-139.71;78.85
3598;BME280;1813;52.016;8.714;2023-03-03T03:22:34;-16261.94;;;-139.71;78.93
3598;BME280;1813;52.016;8.714;2023-03-03T03:25:09;-16261.94;;;-139.71;78.93
3598;BME280;1813;52.016;8.714;2023-03-03T03:27:42;-16261.94;;;-139.71;78.96
3598;BME280;1813;52.016;8.714;2023-03-03T03:30:20;-16261.94;;;-139.71;79.03
3598;BME280;1813;52.016;8.714;2023-03-03T03:32:54;-16261.94;;;-139.71;79.17
3598;BME280;1813;52.016;8.714;2023-03-03T03:35:28;-16261.94;;;-139.71;79.30
3598;BME280;1813;52.016;8.714;2023-03-03T03:38:02;-16261.94;;;-139.71;79.33
3598;BME280;1813;52.016;8.714;2023-03-03T03:40:36;-16261.94;;;-139.71;79.35
3598;BME280;1813;52.016;8.714;2023-03-03T03:43:10;-16261.94;;;-139.71;79.12
3598;BME280;1813;52.016;8.714;2023-03-03T03:45:48;-16261.94;;;-139.71;79.11
3598;BME280;1813;52.016;8.714;2023-03-03T03:48:22;-16261.94;;;-139.71;78.98
3598;BME280;1813;52.016;8.714;2023-03-03T03:50:56;-16261.94;;;-139.71;78.99
3598;BME280;1813;52.016;8.714;2023-03-03T03:53:31;-16261.94;;;-139.71;79.03
3598;BME280;1813;52.016;8.714;2023-03-03T03:56:06;-16261.94;;;-139.71;79.23
3598;BME280;1813;52.016;8.714;2023-03-03T03:58:41;-16261.94;;;-139.71;79.30
3598;BME280;1813;52.016;8.714;2023-03-03T04:01:19;-16261.94;;;-139.71;79.23
3598;BME280;1813;52.016;8.714;2023-03-03T04:03:54;-16261.94;;;-139.71;79.09
3598;BME280;1813;52.016;8.714;2023-03-03T04:06:30;-16261.94;;;-139.71;79.09
3598;BME280;1813;52.016;8.714;2023-03-03T04:09:07;-16261.94;;;-139.71;79.03
3598;BME280;1813;52.016;8.714;2023-03-03T04:11:40;-16261.94;;;-139.71;78.96
3598;BME280;1813;52.016;8.714;2023-03-03T04:14:15;-16261.94;;;-139.71;78.94
3598;BME280;1813;52.016;8.714;2023-03-03T04:16:51;-16261.94;;;-139.71;78.90
3598;BME280;1813;52.016;8.714;2023-03-03T04:19:27;-16261.94;;;-139.71;78.90
3598;BME280;1813;52.016;8.714;2023-03-03T04:22:01;-16261.94;;;-139.71;78.87
3598;BME280;1813;52.016;8.714;2023-03-03T04:24:39;-16261.94;;;-139.71;78.70
3598;BME280;1813;52.016;8.714;2023-03-03T04:27:14;-16261.94;;;-139.71;78.56
3598;BME280;1813;52.016;8.714;2023-03-03T04:29:49;-16261.94;;;-139.71;78.49
3598;BME280;1813;52.016;8.714;2023-03-03T04:32:26;-16261.94;;;-139.71;78.29
3598;BME280;1813;52.016;8.714;2023-03-03T04:35:04;-16261.94;;;-139.71;78.29
3598;BME280;1813;52.016;8.714;2023-03-03T04:37:39;-16261.94;;;-139.71;78.22
3598;BME280;1813;52.016;8.714;2023-03-03T04:40:14;-16261.94;;;-139.71;78.17
3598;BME280;1813;52.016;8.714;2023-03-03T04:42:50;-16261.94;;;-139.71;78.09
3598;BME280;1813;52.016;8.714;2023-03-03T04:45:26;-16261.94;;;-139.71;78.08
3598;BME280;1813;52.016;8.714;2023-03-03T04:48:03;-16261.94;;;-139.71;78.06
3598;BME280;1813;52.016;8.714;2023-03-03T04:50:38;-16261.94;;;-139.71;78.08
3598;BME280;1813;52.016;8.714;2023-03-03T04:53:12;-16261.94;;;-139.71;78.36
3598;BME280;1813;52.016;8.714;2023-03-03T04:55:49;-16261.94;;;-139.71;78.09
3598;BME280;1813;52.016;8.714;2023-03-03T04:58:25;-16261.94;;;-139.71;77.84
3598;BME280;1813;52.016;8.714;2023-03-03T05:01:00;-16261.94;;;-139.71;77.66
3598;BME280;1813;52.016;8.714;2023-03-03T05:03:38;-16261.94;;;-139.71;76.96
3598;BME280;1813;52.016;8.714;2023-03-03T05:06:12;-16261.94;;;-139.71;76.61
3598;BME280;1813;52.016;8.714;2023-03-03T05:08:48;-16261.94;;;-139.71;76.30
3598;BME280;1813;52.016;8.714;2023-03-03T05:11:21;-16261.94;;;-139.71;76.37
3598;BME280;1813;52.016;8.714;2023-03-03T05:13:55;-16261.94;;;-139.71;76.63
3598;BME280;1813;52.016;8.714;2023-03-03T05:16:29;-16261.94;;;-139.71;76.82
3598;BME280;1813;52.016;8.714;2023-03-03T05:19:07;-16261.94;;;-139.71;76.96
3598;BME280;1813;52.016;8.714;2023-03-03T05:21:41;-16261.94;;;-139.71;76.89
3598;BME280;1813;52.016;8.714;2023-03-03T05:24:15;-16261.94;;;-139.71;76.95
3598;BME280;1813;52.016;8.714;2023-03-03T05:26:49;-16261.94;;;-139.71;77.05
3598;BME280;1813;52.016;8.714;2023-03-03T05:29:24;-16261.94;;;-139.71;76.82
3598;BME280;1813;52.016;8.714;2023-03-03T05:31:58;-16261.94;;;-139.71;76.62
3598;BME280;1813;52.016;8.714;2023-03-03T05:34:34;-16261.94;;;-139.71;76.68
3598;BME280;1813;52.016;8.714;2023-03-03T05:37:08;-16261.94;;;-139.71;76.75
3598;BME280;1813;52.016;8.714;2023-03-03T05:39:43;-16261.94;;;-139.71;76.95
3598;BME280;1813;52.016;8.714;2023-03-03T05:42:17;-16261.94;;;-139.71;77.01
3598;BME280;1813;52.016;8.714;2023-03-03T05:44:51;-16261.94;;;-139.71;77.14
3598;BME280;1813;52.016;8.714;2023-03-03T05:47:25;-16261.94;;;-139.71;77.41
3598;BME280;1813;52.016;8.714;2023-03-03T05:50:03;-16261.94;;;-139.71;77.49
3598;BME280;1813;52.016;8.714;2023-03-03T05:52:38;-16261.94;;;-139.71;77.95
3598;BME280;1813;52.016;8.714;2023-03-03T05:55:13;-16261.94;;;-139.71;78.27
3598;BME280;1813;52.016;8.714;2023-03-03T05:57:47;-16261.94;;;-139.71;78.55
3598;BME280;1813;52.016;8.714;2023-03-03T06:00:22;-16261.94;;;-139.71;78.58
3598;BME280;1813;52.016;8.714;2023-03-03T06:02:56;-16261.94;;;-139.71;78.73
3598;BME280;1813;52.016;8.714;2023-03-03T06:05:32;-16261.94;;;-139.71;78.88
3598;BME280;1813;52.016;8.714;2023-03-03T06:08:06;-16261.94;;;-139.71;78.99
3598;BME280;1813;52.016;8.714;2023-03-03T06:10:40;-16261.94;;;-139.71;78.93
3598;BME280;1813;52.016;8.714;2023-03-03T06:13:15;-16261.94;;;-139.71;78.79
3598;BME280;1813;52.016;8.714;2023-03-03T06:15:49;-16261.94;;;-139.71;78.85
3598;BME280;1813;52.016;8.714;2023-03-03T06:18:25;-16261.94;;;-139.71;78.91
3598;BME280;1813;52.016;8.714;2023-03-03T06:21:02;-16261.94;;;-139.71;79.15
3598;BME280;1813;52.016;8.714;2023-03-03T06:23:37;-16261.94;;;-139.71;79.34
3598;BME280;1813;52.016;8.714;2023-03-03T06:26:14;-16261.94;;;-139.71;79.35
3598;BME280;1813;52.016;8.714;2023-03-03T06:28:47;-16261.94;;;-139.71;79.65
3598;BME280;1813;52.016;8.714;2023-03-03T06:31:24;-16261.94;;;-139.71;79.72
3598;BME280;1813;52.016;8.714;2023-03-03T06:33:58;-16261.94;;;-139.71;79.55
3598;BME280;1813;52.016;8.714;2023-03-03T06:36:34;-16261.94;;;-139.71;79.65
3598;BME280;1813;52.016;8.714;2023-03-03T06:39:08;-16261.94;;;-139.71;79.51
3598;BME280;1813;52.016;8.714;2023-03-03T06:41:42;-16261.94;;;-139.71;79.35
3598;BME280;1813;52.016;8.714;2023-03-03T06:44:16;-16261.94;;;-139.71;79.46
3598;BME280;1813;52.016;8.714;2023-03-03T06:46:50;-16261.94;;;-139.71;79.60
3598;BME280;1813;52.016;8.714;2023-03-03T06:49:26;-16261.94;;;-139.71;79.52
3598;BME280;1813;52.016;8.714;2023-03-03T06:52:10;-16261.94;;;-139.71;79.50
3598;BME280;1813;52.016;8.714;2023-03-03T06:54:45;-16261.94;;;-139.71;78.94
3598;BME280;1813;52.016;8.714;2023-03-03T06:57:24;-16261.94;;;-139.71;78.67
3598;BME280;1813;52.016;8.714;2023-03-03T07:00:05;-16261.94;;;-139.71;78.31
3598;BME280;1813;52.016;8.714;2023-03-03T07:02:46;-16261.94;;;-139.71;78.21
3598;BME280;1813;52.016;8.714;2023-03-03T07:05:22;-16261.94;;;-139.71;78.03
3598;BME280;1813;52.016;8.714;2023-03-03T07:07:59;-16261.94;;;-139.71;77.82
3598;BME280;1813;52.016;8.714;2023-03-03T07:10:33;-16261.94;;;-139.71;77.88
3598;BME280;1813;52.016;8.714;2023-03-03T07:13:18;-16261.94;;;-139.71;77.94
3598;BME280;1813;52.016;8.714;2023-03-03T07:15:54;-16261.94;;;-139.71;78.24
3598;BME280;1813;52.016;8.714;2023-03-03T07:18:34;-16261.94;;;-139.71;78.27
3598;BME280;1813;52.016;8.714;2023-03-03T07:21:15;-16261.94;;;-139.71;77.99
3598;BME280;1813;52.016;8.714;2023-03-03T07:23:52;-16261.94;;;-139.71;78.04
3598;BME280;1813;52.016;8.714;2023-03-03T07:26:29;-16261.94;;;-139.71;77.93
3598;BME280;1813;52.016;8.714;2023-03-03T07:29:17;-16261.94;;;-139.71;77.88
3598;BME280;1813;52.016;8.714;2023-03-03T07:31:52;-16261.94;;;-139.71;78.02
3598;BME280;1813;52.016;8.714;2023-03-03T07:34:34;-16261.94;;;-139.71;78.12
3598;BME280;1813;52.016;8.714;2023-03-03T07:37:15;-16261.94;;;-139.71;78.17
3598;BME280;1813;52.016;8.714;2023-03-03T07:39:53;-16261.94;;;-139.71;78.44
3598;BME280;1813;52.016;8.714;2023-03-03T07:42:39;-16261.94;;;-139.71;78.51
3598;BME280;1813;52.016;8.714;2023-03-03T07:45:28;-16261.94;;;-139.71;78.57
3598;BME280;1813;52.016;8.714;2023-03-03T07:48:13;-16261.94;;;-139.71;78.61
3598;BME280;1813;52.016;8.714;2023-03-03T07:50:49;-16261.94;;;-139.71;78.63
3598;BME280;1813;52.016;8.714;2023-03-03T07:53:26;-16261.94;;;-139.71;78.79
3598;BME280;1813;52.016;8.714;2023-03-03T07:56:14;-16261.94;;;-139.71;78.89
3598;BME280;1813;52.016;8.714;2023-03-03T07:58:49;-16261.94;;;-139.71;78.56
3598;BME280;1813;52.016;8.714;2023-03-03T08:01:43;-16261.94;;;-139.71;78.36
3598;BME280;1813;52.016;8.714;2023-03-03T08:04:21;-16261.94;;;-139.71;78.09
3598;BME280;1813;52.016;8.714;2023-03-03T08:06:56;-16261.94;;;-139.71;77.86
3598;BME280;1813;52.016;8.714;2023-03-03T08:09:55;-16261.94;;;-139.71;77.58
3598;BME280;1813;52.016;8.714;2023-03-03T08:12:40;-16261.94;;;-139.71;77.45
3598;BME280;1813;52.016;8.714;2023-03-03T08:15:19;-16261.94;;;-139.71;77.46
3598;BME280;1813;52.016;8.714;2023-03-03T08:17:54;-16261.94;;;-139.71;77.25
3598;BME280;1813;52.016;8.714;2023-03-03T08:20:43;-16261.94;;;-139.71;77.14
3598;BME280;1813;52.016;8.714;2023-03-03T08:23:19;-16261.94;;;-139.71;77.10
3598;BME280;1813;52.016;8.714;2023-03-03T08:25:53;-16261.94;;;-139.71;77.14
3598;BME280;1813;52.016;8.714;2023-03-03T08:28:30;-16261.94;;;-139.71;76.97
3598;BME280;1813;52.016;8.714;2023-03-03T08:31:04;-16261.94;;;-139.71;76.82
3598;BME280;1813;52.016;8.714;2023-03-03T08:33:38;-16261.94;;;-139.71;76.87
3598;BME280;1813;52.016;8.714;2023-03-03T08:36:13;-16261.94;;;-139.71;76.80
3598;BME280;1813;52.016;8.714;2023-03-03T08:38:47;-16261.94;;;-139.71;76.58
3598;BME280;1813;52.016;8.714;2023-03-03T08:41:21;-16261.94;;;-139.71;76.87
3598;BME280;1813;52.016;8.714;2023-03-03T08:43:58;-16261.94;;;-139.71;77.17
3598;BME280;1813;52.016;8.714;2023-03-03T08:46:32;-16261.94;;;-139.71;77.13
3598;BME280;1813;52.016;8.714;2023-03-03T08:49:06;-16261.94;;;-139.71;76.77
3598;BME280;1813;52.016;8.714;2023-03-03T08:51:41;-16261.94;;;-139.71;76.33
3598;BME280;1813;52.016;8.714;2023-03-03T08:54:15;-16261.94;;;-139.71;76.31
3598;BME280;1813;52.016;8.714;2023-03-03T08:56:48;-16261.94;;;-139.71;76.22
3598;BME280;1813;52.016;8.714;2023-03-03T08:59:25;-16261.94;;;-139.71;76.32
3598;BME280;1813;52.016;8.714;2023-03-03T09:01:59;-16261.94;;;-139.71;76.18
3598;BME280;1813;52.016;8.714;2023-03-03T09:04:33;-16261.94;;;-139.71;75.86
3598;BME280;1813;52.016;8.714;2023-03-03T09:07:07;-16261.94;;;-139.71;75.81
3598;BME280;1813;52.016;8.714;2023-03-03T09:09:41;-16261.94;;;-139.71;75.49
3598;BME280;1813;52.016;8.714;2023-03-03T09:12:17;-16261.94;;;-139.71;75.27
3598;BME280;1813;52.016;8.714;2023-03-03T09:14:55;-16261.94;;;-139.71;75.44
3598;BME280;1813;52.016;8.714;2023-03-03T09:17:31;-16261.94;;;-139.71;75.50
3598;BME280;1813;52.016;8.714;2023-03-03T09:20:21;-16261.94;;;-139.71;75.78
3598;BME280;1813;52.016;8.714;2023-03-03T09:22:55;-16261.94;;;-139.71;75.63
3598;BME280;1813;52.016;8.714;2023-03-03T09:25:32;-16261.94;;;-139.71;75.52
3598;BME280;1813;52.016;8.714;2023-03-03T09:28:20;-16261.94;;;-139.71;75.36
3598;BME280;1813;52.016;8.714;2023-03-03T09:31:00;-16261.94;;;-139.71;75.26
3598;BME280;1813;52.016;8.714;2023-03-03T09:33:40;-16261.94;;;-139.71;74.89
3598;BME280;1813;52.016;8.714;2023-03-03T09:36:21;-16261.94;;;-139.71;74.57
3598;BME280;1813;52.016;8.714;2023-03-03T09:38:57;-16261.94;;;-139.71;74.28
3598;BME280;1813;52.016;8.714;2023-03-03T09:41:56;-16261.94;;;-139.71;73.66
3598;BME280;1813;52.016;8.714;2023-03-03T09:48:20;-16261.94;;;-139.71;73.95
3598;BME280;1813;52.016;8.714;2023-03-03T09:51:07;-16261.94;;;-139.71;73.71
3598;BME280;1813;52.016;8.714;2023-03-03T09:54:04;-16261.94;;;-139.71;73.47
3598;BME280;1813;52.016;8.714;2023-03-03T09:56:43;-16261.94;;;-139.71;72.10
3598;BME280;1813;52.016;8.714;2023-03-03T09:59:30;-16261.94;;;-139.71;71.29
3598;BME280;1813;52.016;8.714;2023-03-03T10:02:23;-16261.94;;;-139.71;70.46
3598;BME280;1813;52.016;8.714;2023-03-03T10:05:11;-16261.94;;;-139.71;70.59
3598;BME280;1813;52.016;8.714;2023-03-03T10:07:54;-16261.94;;;-139.71;70.61
3598;BME280;1813;52.016;8.714;2023-03-03T10:10:47;-16261.94;;;-139.71;70.70
3598;BME280;1813;52.016;8.714;2023-03-03T10:13:37;-16261.94;;;-139.71;70.17
3598;BME280;1813;52.016;8.714;2023-03-03T10:16:44;-16261.94;;;-139.71;70.18
3598;BME280;1813;52.016;8.714;2023-03-03T10:19:34;-16261.94;;;-139.71;69.32
3598;BME280;1813;52.016;8.714;2023-03-03T10:22:20;-16261.94;;;-139.71;69.17
3598;BME280;1813;52.016;8.714;2023-03-03T10:25:07;-16261.94;;;-139.71;68.51
3598;BME280;1813;52.016;8.714;2023-03-03T10:27:52;-16261.94;;;-139.71;68.74
3598;BME280;1813;52.016;8.714;2023-03-03T10:30:36;-16261.94;;;-139.71;68.53
3598;BME280;1813;52.016;8.714;2023-03-03T10:33:19;-16261.94;;;-139.71;68.50
3598;BME280;1813;52.016;8.714;2023-03-03T10:36:15;-16261.94;;;-139.71;68.48
3598;BME280;1813;52.016;8.714;2023-03-03T10:42:16;-16261.94;;;-139.71;67.75
3598;BME280;1813;52.016;8.714;2023-03-03T10:45:18;-16261.94;;;-139.71;67.02
3598;BME280;1813;52.016;8.714;2023-03-03T10:48:20;-16261.94;;;-139.71;67.01
3598;BME280;1813;52.016;8.714;2023-03-03T10:51:06;-16261.94;;;-139.71;66.49
3598;BME280;1813;52.016;8.714;2023-03-03T10:53:49;-16261.94;;;-139.71;65.31
3598;BME280;1813;52.016;8.714;2023-03-03T10:56:41;-16261.94;;;-139.71;64.52
3598;BME280;1813;52.016;8.714;2023-03-03T10:59:34;-16261.94;;;-139.71;64.23
3598;BME280;1813;52.016;8.714;2023-03-03T11:02:17;-16261.94;;;-139.71;64.74
3598;BME280;1813;52.016;8.714;2023-03-03T11:05:01;-16261.94;;;-139.71;65.62
3598;BME280;1813;52.016;8.714;2023-03-03T11:07:43;-16261.94;;;-139.71;65.72
3598;BME280;1813;52.016;8.714;2023-03-03T11:10:27;-16261.94;;;-139.71;65.27
3598;BME280;1813;52.016;8.714;2023-03-03T11:13:15;-16261.94;;;-139.71;65.38
3598;BME280;1813;52.016;8.714;2023-03-03T11:16:15;-16261.94;;;-139.71;65.86
3598;BME280;1813;52.016;8.714;2023-03-03T11:19:18;-16261.94;;;-139.71;65.44
3598;BME280;1813;52.016;8.714;2023-03-03T11:22:03;-16261.94;;;-139.71;65.79
3598;BME280;1813;52.016;8.714;2023-03-03T11:24:52;-16261.94;;;-139.71;66.30
3598;BME280;1813;52.016;8.714;2023-03-03T11:27:58;-16261.94;;;-139.71;66.63
3598;BME280;1813;52.016;8.714;2023-03-03T11:30:48;-16261.94;;;-139.71;66.25
3598;BME280;1813;52.016;8.714;2023-03-03T11:33:28;-16261.94;;;-139.71;65.56
3598;BME280;1813;52.016;8.714;2023-03-03T11:36:10;-16261.94;;;-139.71;65.17
3598;BME280;1813;52.016;8.714;2023-03-03T11:38:53;-16261.94;;;-139.71;65.15
3598;BME280;1813;52.016;8.714;2023-03-03T11:41:33;-16261.94;;;-139.71;65.52
3598;BME280;1813;52.016;8.714;2023-03-03T11:44:17;-16261.94;;;-139.71;65.08
3598;BME280;1813;52.016;8.714;2023-03-03T11:47:00;-16261.94;;;-139.71;65.08
3598;BME280;1813;52.016;8.714;2023-03-03T11:49:39;-16261.94;;;-139.71;64.19
3598;BME280;1813;52.016;8.714;2023-03-03T11:52:23;-16261.94;;;-139.71;63.20
3598;BME280;1813;52.016;8.714;2023-03-03T11:55:03;-16261.94;;;-139.71;63.04
3598;BME280;1813;52.016;8.714;2023-03-03T11:57:42;-16261.94;;;-139.71;62.17
3598;BME280;1813;52.016;8.714;2023-03-03T12:00:24;-16261.94;;;-139.71;61.68
3598;BME280;1813;52.016;8.714;2023-03-03T12:03:19;-16261.94;;;-139.71;60.35
3598;BME280;1813;52.016;8.714;2023-03-03T12:05:57;-16261.94;;;-139.71;60.39
3598;BME280;1813;52.016;8.714;2023-03-03T12:08:47;-16261.94;;;-139.71;60.35
3598;BME280;1813;52.016;8.714;2023-03-03T12:11:28;-16261.94;;;-139.71;60.59
3598;BME280;1813;52.016;8.714;2023-03-03T12:14:10;-16261.94;;;-139.71;59.62
3598;BME280;1813;52.016;8.714;2023-03-03T12:16:53;-16261.94;;;-139.71;60.65
3598;BME280;1813;52.016;8.714;2023-03-03T12:19:45;-16261.94;;;-139.71;61.55
3598;BME280;1813;52.016;8.714;2023-03-03T12:22:30;-16261.94;;;-139.71;61.77
3598;BME280;1813;52.016;8.714;2023-03-03T12:25:24;-16261.94;;;-139.71;62.57
3598;BME280;1813;52.016;8.714;2023-03-03T12:28:05;-16261.94;;;-139.71;63.36
3598;BME280;1813;52.016;8.714;2023-03-03T12:31:13;-16261.94;;;-139.71;63.20
3598;BME280;1813;52.016;8.714;2023-03-03T12:33:54;-16261.94;;;-139.71;63.11
3598;BME280;1813;52.016;8.714;2023-03-03T12:36:58;-16261.94;;;-139.71;62.82
3598;BME280;1813;52.016;8.714;2023-03-03T12:39:44;-16261.94;;;-139.71;61.70
3598;BME280;1813;52.016;8.714;2023-03-03T12:42:28;-16261.94;;;-139.71;62.20
3598;BME280;1813;52.016;8.714;2023-03-03T12:45:16;-16261.94;;;-139.71;62.06
3598;BME280;1813;52.016;8.714;2023-03-03T12:47:59;-16261.94;;;-139.71;61.06
3598;BME280;1813;52.016;8.714;2023-03-03T12:50:41;-16261.94;;;-139.71;60.40
3598;BME280;1813;52.016;8.714;2023-03-03T12:53:33;-16261.94;;;-139.71;60.24
3598;BME280;1813;52.016;8.714;2023-03-03T12:56:12;-16261.94;;;-139.71;59.50
3598;BME280;1813;52.016;8.714;2023-03-03T12:58:51;-16261.94;;;-139.71;58.87
3598;BME280;1813;52.016;8.714;2023-03-03T13:01:43;-16261.94;;;-139.71;59.74
3598;BME280;1813;52.016;8.714;2023-03-03T13:04:28;-16261.94;;;-139.71;58.53
3598;BME280;1813;52.016;8.714;2023-03-03T13:07:11;-16261.94;;;-139.71;56.55
3598;BME280;1813;52.016;8.714;2023-03-03T13:10:02;-16261.94;;;-139.71;55.12
3598;BME280;1813;52.016;8.714;2023-03-03T13:12:43;-16261.94;;;-139.71;54.92
3598;BME280;1813;52.016;8.714;2023-03-03T13:15:21;-16261.94;;;-139.71;55.91
3598;BME280;1813;52.016;8.714;2023-03-03T13:18:03;-16261.94;;;-139.71;54.85
3598;BME280;1813;52.016;8.714;2023-03-03T13:20:46;-16261.94;;;-139.71;54.15
3598;BME280;1813;52.016;8.714;2023-03-03T13:23:33;-16261.94;;;-139.71;54.01
3598;BME280;1813;52.016;8.714;2023-03-03T13:26:19;-16261.94;;;-139.71;53.26
3598;BME280;1813;52.016;8.714;2023-03-03T13:29:08;-16261.94;;;-139.71;52.26
3598;BME280;1813;52.016;8.714;2023-03-03T13:31:48;-16261.94;;;-139.71;53.06
3598;BME280;1813;52.016;8.714;2023-03-03T13:34:29;-16261.94;;;-139.71;54.08
3598;BME280;1813;52.016;8.714;2023-03-03T13:37:14;-16261.94;;;-139.71;53.43
3598;BME280;1813;52.016;8.714;2023-03-03T13:39:55;-16261.94;;;-139.71;53.71
3598;BME280;1813;52.016;8.714;2023-03-03T13:42:39;-16261.94;;;-139.71;54.81
3598;BME280;1813;52.016;8.714;2023-03-03T13:45:19;-16261.94;;;-139.71;53.25
3598;BME280;1813;52.016;8.714;2023-03-03T13:48:01;-16261.94;;;-139.71;52.64
3598;BME280;1813;52.016;8.714;2023-03-03T13:50:44;-16261.94;;;-139.71;51.88
3598;BME280;1813;52.016;8.714;2023-03-03T13:53:33;-16261.94;;;-139.71;51.86
3598;BME280;1813;52.016;8.714;2023-03-03T13:56:25;-16261.94;;;-139.71;52.10
3598;BME280;1813;52.016;8.714;2023-03-03T13:59:09;-16261.94;;;-139.71;52.90
3598;BME280;1813;52.016;8.714;2023-03-03T14:01:55;-16261.94;;;-139.71;51.72